Time;durP1;ratioP1;P1;durP2;ratioP2;P2;SDS_P1;SDS_P2;PMS_P1;PMS_P2;Temp;Humidity;BMP_temperature;BMP_pressure;BME280_temperature;BME280_humidity;BME280_pressure;Samples;Min_cycle;Max_cycle;Signal;HPM_P1;HPM_P2
2022/07/04 00:01:07;;;;;;;6.40;4.30;;;19.20;99.90;;;;;;2586212;54;20048;31
2022/07/04 00:03:41;;;;;;;5.60;4.50;;;19.10;99.90;;;;;;2586043;54;20053;31
2022/07/04 00:06:21;;;;;;;7.90;4.60;;;19.10;99.90;;;;;;2604429;46;22450;31
2022/07/04 00:08:55;;;;;;;5.28;4.65;;;19.00;99.90;;;;;;2585604;54;20261;31
2022/07/04 00:11:31;;;;;;;5.70;4.65;;;19.10;99.90;;;;;;2586068;54;20882;31
2022/07/04 00:14:09;;;;;;;5.55;4.93;;;19.00;99.90;;;;;;2604390;46;20061;31
2022/07/04 00:16:46;;;;;;;5.75;3.95;;;19.00;99.90;;;;;;2585475;54;20026;31
2022/07/04 00:19:21;;;;;;;7.25;4.75;;;19.00;99.90;;;;;;2603892;46;21041;31
2022/07/04 00:21:57;;;;;;;4.53;4.10;;;19.00;99.90;;;;;;2603479;46;20969;31
2022/07/04 00:24:34;;;;;;;5.45;4.50;;;19.00;99.90;;;;;;2603963;46;20791;31
2022/07/04 00:27:12;;;;;;;6.90;5.00;;;19.00;99.90;;;;;;2586041;54;20859;31
2022/07/04 00:29:47;;;;;;;5.70;4.20;;;18.90;99.90;;;;;;2585645;54;20854;31
2022/07/04 00:32:25;;;;;;;5.80;4.80;;;18.80;99.90;;;;;;2585763;54;20022;31
2022/07/04 00:34:59;;;;;;;5.07;4.57;;;18.90;99.90;;;;;;2603843;46;20039;31
2022/07/04 00:37:33;;;;;;;5.75;4.60;;;18.80;99.90;;;;;;2603259;46;20954;31
2022/07/04 00:40:11;;;;;;;6.47;4.95;;;18.80;99.90;;;;;;2603212;46;20738;31
2022/07/04 00:42:46;;;;;;;6.85;4.45;;;18.80;99.90;;;;;;2604231;46;20157;31
2022/07/04 00:45:22;;;;;;;6.00;4.43;;;18.70;99.90;;;;;;2604146;46;20937;31
2022/07/04 00:48:02;;;;;;;4.95;4.53;;;18.70;99.90;;;;;;2585446;54;20878;31
2022/07/04 00:50:44;;;;;;;6.25;4.35;;;18.70;99.90;;;;;;2585716;54;20672;31
2022/07/04 00:53:17;;;;;;;5.37;4.87;;;18.70;99.90;;;;;;2585610;54;20088;31
2022/07/04 00:55:52;;;;;;;6.47;5.60;;;18.60;99.90;;;;;;2585660;54;20238;31
2022/07/04 00:58:30;;;;;;;5.85;4.30;;;18.60;99.90;;;;;;2603917;46;20304;31
2022/07/04 01:01:07;;;;;;;6.28;5.68;;;18.50;99.90;;;;;;2585900;54;20029;31
2022/07/04 01:03:41;;;;;;;7.85;4.40;;;18.50;99.90;;;;;;2604016;46;20100;31
2022/07/04 01:06:17;;;;;;;8.07;5.68;;;18.40;99.90;;;;;;2584993;54;20945;31
2022/07/04 01:08:56;;;;;;;5.43;4.93;;;18.40;99.90;;;;;;2585745;54;20022;31
2022/07/04 01:11:31;;;;;;;6.60;5.25;;;18.40;99.90;;;;;;2585866;54;21405;31
2022/07/04 01:14:09;;;;;;;6.45;4.78;;;18.30;99.90;;;;;;2585662;54;20937;31
2022/07/04 01:16:41;;;;;;;4.78;4.32;;;18.40;99.90;;;;;;2604082;46;20053;31
2022/07/04 01:19:17;;;;;;;6.15;5.55;;;18.30;99.90;;;;;;2585623;54;20081;31
2022/07/04 01:21:54;;;;;;;6.57;5.20;;;18.30;99.90;;;;;;2585709;54;20902;31
2022/07/04 01:24:33;;;;;;;6.55;5.65;;;18.30;99.90;;;;;;2585733;54;20893;31
2022/07/04 01:27:08;;;;;;;7.63;4.82;;;18.20;99.90;;;;;;2604035;46;20030;31
2022/07/04 01:29:43;;;;;;;6.97;5.03;;;18.10;99.90;;;;;;2585604;54;20026;31
2022/07/04 01:32:17;;;;;;;4.87;4.47;;;18.10;99.90;;;;;;2584807;54;20124;31
2022/07/04 01:34:52;;;;;;;6.50;5.13;;;18.10;99.90;;;;;;2604266;46;20251;31
2022/07/04 01:37:27;;;;;;;6.65;5.95;;;18.00;99.90;;;;;;2585833;54;21123;31
2022/07/04 01:40:04;;;;;;;6.20;5.60;;;18.00;99.90;;;;;;2604118;46;21132;31
2022/07/04 01:42:37;;;;;;;6.70;6.00;;;17.90;99.90;;;;;;2585449;54;20046;31
2022/07/04 01:45:15;;;;;;;7.60;5.65;;;17.90;99.90;;;;;;2585529;54;20953;31
2022/07/04 01:47:50;;;;;;;7.30;5.90;;;17.80;99.90;;;;;;2585823;54;20918;31
2022/07/04 01:50:25;;;;;;;8.18;5.70;;;17.80;99.90;;;;;;2585520;54;20100;31
2022/07/04 01:53:00;;;;;;;6.95;6.05;;;17.80;99.90;;;;;;2604283;46;20038;31
2022/07/04 01:55:37;;;;;;;7.85;5.65;;;17.70;99.90;;;;;;2604067;46;20669;31
2022/07/04 01:58:12;;;;;;;6.72;6.10;;;17.70;99.90;;;;;;2603908;46;20026;31
2022/07/04 02:03:35;;;;;;;6.82;5.70;;;17.50;99.90;;;;;;2585408;54;20109;31
2022/07/04 02:06:09;;;;;;;8.80;5.60;;;17.60;99.90;;;;;;2585529;54;20035;31
2022/07/04 02:13:00;;;;;;;7.80;5.80;;;17.50;99.90;;;;;;2604198;46;20941;31
2022/07/04 02:14:41;;;;;;;7.38;5.53;;;17.50;99.90;;;;;;2603650;46;20068;31
2022/07/04 02:17:17;;;;;;;8.97;7.00;;;17.50;99.90;;;;;;2585563;54;20545;31
2022/07/04 02:19:52;;;;;;;7.67;5.43;;;17.60;99.90;;;;;;2604327;46;20057;31
2022/07/04 02:22:25;;;;;;;7.93;5.67;;;17.40;99.90;;;;;;2585412;54;20053;31
2022/07/04 02:25:02;;;;;;;9.20;5.50;;;17.30;99.90;;;;;;2603853;46;21312;31
2022/07/04 02:27:39;;;;;;;7.03;5.50;;;17.40;99.90;;;;;;2585508;54;20034;31
2022/07/04 02:30:15;;;;;;;6.57;5.88;;;17.40;99.90;;;;;;2585491;54;20877;31
2022/07/04 02:32:50;;;;;;;7.35;6.18;;;17.40;99.90;;;;;;2773058;31;22487;31
2022/07/04 02:35:24;;;;;;;8.80;6.63;;;17.30;99.90;;;;;;2604137;46;21112;31
2022/07/04 02:37:59;;;;;;;8.85;6.85;;;17.30;99.90;;;;;;2585499;54;20027;31
2022/07/04 02:40:36;;;;;;;8.00;6.10;;;17.20;99.90;;;;;;2585500;54;20062;31
2022/07/04 02:43:10;;;;;;;5.60;5.10;;;17.20;99.90;;;;;;2584584;54;20062;31
2022/07/04 02:45:44;;;;;;;8.50;6.60;;;17.20;99.90;;;;;;2585427;54;20274;31
2022/07/04 02:48:23;;;;;;;6.60;5.93;;;17.20;99.90;;;;;;2753560;31;22606;31
2022/07/04 02:50:58;;;;;;;8.35;6.07;;;17.10;99.90;;;;;;2702184;39;22679;31
2022/07/04 02:53:32;;;;;;;8.70;7.80;;;17.20;99.90;;;;;;2603343;46;20979;31
2022/07/04 02:56:13;;;;;;;7.20;5.70;;;17.10;99.90;;;;;;2603864;46;20042;31
2022/07/04 02:58:47;;;;;;;7.75;6.05;;;17.10;99.90;;;;;;2604108;46;20914;31
2022/07/04 03:01:27;;;;;;;10.07;6.68;;;17.10;99.90;;;;;;2585497;54;20944;31
2022/07/04 03:04:02;;;;;;;7.65;6.22;;;17.10;99.90;;;;;;2682787;39;21490;31
2022/07/04 03:06:42;;;;;;;10.73;7.87;;;17.00;99.90;;;;;;2604145;46;20936;31
2022/07/04 03:09:19;;;;;;;8.73;7.38;;;17.00;99.90;;;;;;2585015;54;20053;31
2022/07/04 03:11:59;;;;;;;12.85;6.05;;;17.00;99.90;;;;;;2585114;54;20937;31
2022/07/04 03:14:35;;;;;;;8.85;6.43;;;17.00;99.90;;;;;;2595789;46;19957;31
2022/07/04 03:17:13;;;;;;;10.63;7.50;;;17.00;99.90;;;;;;2603814;46;20053;31
2022/07/04 03:19:47;;;;;;;9.57;7.70;;;17.00;99.90;;;;;;2683370;39;21254;31
2022/07/04 03:22:23;;;;;;;10.52;6.93;;;16.90;99.90;;;;;;2604094;47;20031;31
2022/07/04 03:25:01;;;;;;;10.50;7.38;;;17.00;99.90;;;;;;2585479;54;20089;31
2022/07/04 03:27:38;;;;;;;;;;;17.00;99.90;;;;;;2585710;54;20820;31
2022/07/04 03:30:14;;;;;;;10.60;7.80;;;17.00;99.90;;;;;;2585376;54;20878;31
2022/07/04 03:32:50;;;;;;;9.77;7.43;;;17.10;99.90;;;;;;2603966;47;20049;31
2022/07/04 03:35:24;;;;;;;8.35;6.55;;;17.10;99.90;;;;;;2585284;54;21189;31
2022/07/04 03:38:00;;;;;;;12.15;7.03;;;17.20;99.90;;;;;;2585472;54;20057;31
2022/07/04 03:40:35;;;;;;;9.70;6.90;;;17.30;99.90;;;;;;2585032;54;20906;31
2022/07/04 03:43:14;;;;;;;10.80;7.70;;;17.50;99.90;;;;;;2584380;54;21146;31
2022/07/04 03:45:54;;;;;;;8.45;7.55;;;17.60;99.90;;;;;;2584163;54;20076;31
2022/07/04 03:48:29;;;;;;;9.00;7.03;;;17.80;99.90;;;;;;2584273;54;20879;31
2022/07/04 03:51:06;;;;;;;11.52;7.35;;;17.90;99.90;;;;;;2584119;54;20848;31
2022/07/04 03:53:40;;;;;;;8.98;7.55;;;18.00;99.90;;;;;;2584002;54;20030;31
2022/07/04 03:56:14;;;;;;;11.55;7.82;;;18.10;99.90;;;;;;2584200;54;20076;31
2022/07/04 03:58:53;;;;;;;10.63;7.23;;;18.30;99.90;;;;;;2584244;54;20038;31
2022/07/04 04:01:30;;;;;;;12.07;7.18;;;18.40;99.90;;;;;;2584013;54;21003;31
2022/07/04 04:06:53;;;;;;;8.17;6.30;;;18.70;99.90;;;;;;2585152;54;20105;31
2022/07/04 04:09:31;;;;;;;;;;;18.90;99.90;;;;;;2603648;47;20033;31
2022/07/04 04:12:08;;;;;;;10.70;7.45;;;19.00;99.90;;;;;;2603680;47;20833;31
2022/07/04 04:14:47;;;;;;;9.60;6.90;;;19.20;99.90;;;;;;2603712;47;21051;31
2022/07/04 04:17:22;;;;;;;10.30;7.10;;;19.40;99.90;;;;;;2585145;54;21128;31
2022/07/04 04:19:57;;;;;;;10.95;6.65;;;19.60;99.90;;;;;;2603677;47;20964;31
2022/07/04 04:22:35;;;;;;;8.15;5.93;;;19.70;99.90;;;;;;2603626;47;20038;31
2022/07/04 04:25:07;;;;;;;7.57;6.53;;;19.90;99.90;;;;;;2589209;46;20026;31
2022/07/04 04:27:41;;;;;;;8.95;6.65;;;20.10;99.90;;;;;;2586049;54;20975;31
2022/07/04 04:30:21;;;;;;;10.05;6.75;;;20.20;99.90;;;;;;2585823;54;20981;31
2022/07/04 04:32:55;;;;;;;9.70;7.75;;;20.30;99.90;;;;;;2585816;54;20918;31
2022/07/04 04:35:31;;;;;;;10.40;7.10;;;20.40;99.90;;;;;;2585827;54;20909;31
2022/07/04 04:38:04;;;;;;;7.93;6.93;;;20.50;99.90;;;;;;2585940;54;20057;31
2022/07/04 04:40:43;;;;;;;11.48;6.40;;;20.70;99.90;;;;;;2585908;54;20570;31
2022/07/04 04:43:24;;;;;;;11.05;7.40;;;20.80;99.90;;;;;;2585763;54;21003;31
2022/07/04 04:46:02;;;;;;;10.95;8.10;;;21.00;99.90;;;;;;2585420;54;20855;31
2022/07/04 04:48:36;;;;;;;12.05;6.93;;;21.20;99.90;;;;;;2702131;39;22323;31
2022/07/04 04:51:09;;;;;;;7.53;6.03;;;21.30;99.90;;;;;;2584678;54;20136;31
2022/07/04 04:53:44;;;;;;;8.63;6.45;;;21.50;99.90;;;;;;2584822;54;20027;31
2022/07/04 04:56:17;;;;;;;7.88;6.28;;;21.70;99.90;;;;;;2584730;54;20038;31
2022/07/04 04:58:52;;;;;;;10.07;6.43;;;21.80;99.90;;;;;;2584776;54;20080;31
2022/07/04 05:01:34;;;;;;;11.02;5.88;;;21.80;99.90;;;;;;2683848;39;21047;31
2022/07/04 05:04:18;;;;;;;8.15;6.38;;;21.80;99.90;;;;;;2702065;39;22482;31
2022/07/04 05:06:54;;;;;;;7.35;5.90;;;22.00;99.90;;;;;;2603739;46;20969;31
2022/07/04 05:09:32;;;;;;;6.25;5.50;;;22.10;99.90;;;;;;2585759;54;22314;31
2022/07/04 05:12:08;;;;;;;7.68;5.80;;;22.30;99.90;;;;;;2604313;46;19960;31
2022/07/04 05:14:46;;;;;;;12.20;5.70;;;22.50;99.90;;;;;;2603968;46;20056;31
2022/07/04 05:17:27;;;;;;;8.60;5.40;;;22.70;99.90;;;;;;2597985;46;21028;31
2022/07/04 05:20:00;;;;;;;10.10;5.25;;;22.80;99.90;;;;;;2585353;54;20047;31
2022/07/04 05:22:37;;;;;;;5.78;5.18;;;23.00;99.90;;;;;;2585542;54;20053;31
2022/07/04 05:25:14;;;;;;;5.45;4.78;;;23.20;99.90;;;;;;2585557;54;19935;31
2022/07/04 05:27:48;;;;;;;7.60;5.70;;;23.40;99.90;;;;;;2584773;54;20794;31
2022/07/04 05:30:23;;;;;;;8.60;4.75;;;23.70;99.90;;;;;;2585863;54;20063;31
2022/07/04 05:33:01;;;;;;;7.95;4.78;;;23.90;99.90;;;;;;2604128;46;20031;31
2022/07/04 05:35:36;;;;;;;7.22;4.75;;;24.20;99.90;;;;;;2584644;54;20858;31
2022/07/04 05:38:14;;;;;;;7.45;4.20;;;24.50;99.90;;;;;;2602119;46;21090;31
2022/07/04 05:40:49;;;;;;;8.15;4.60;;;24.60;99.90;;;;;;2584404;54;20050;31
2022/07/04 05:43:25;;;;;;;5.93;4.18;;;24.90;99.90;;;;;;2584528;54;20867;31
2022/07/04 05:46:01;;;;;;;6.60;4.50;;;25.20;99.90;;;;;;2585329;54;20093;31
2022/07/04 05:48:42;;;;;;;5.65;4.00;;;25.50;99.90;;;;;;2585431;54;20116;31
2022/07/04 05:51:17;;;;;;;6.40;4.15;;;25.80;99.90;;;;;;2585675;54;22519;31
2022/07/04 05:53:50;;;;;;;6.57;4.53;;;26.00;99.90;;;;;;2585418;54;20248;31
2022/07/04 05:56:26;;;;;;;7.00;4.57;;;26.30;99.90;;;;;;2602374;46;20026;31
2022/07/04 05:59:03;;;;;;;20.67;5.28;;;26.50;99.90;;;;;;2585580;54;22025;31
2022/07/04 06:01:39;;;;;;;6.65;3.85;;;26.80;99.90;;;;;;2585341;54;20033;31
2022/07/04 06:04:17;;;;;;;7.60;4.10;;;26.90;99.90;;;;;;2603270;46;20026;31
2022/07/04 06:06:54;;;;;;;6.95;4.25;;;27.00;99.90;;;;;;2585358;54;20029;31
2022/07/04 06:09:30;;;;;;;;;;;27.20;99.90;;;;;;2585659;54;20038;31
2022/07/04 06:12:08;;;;;;;5.70;3.77;;;27.30;99.90;;;;;;2585321;54;19934;31
2022/07/04 06:14:43;;;;;;;7.25;3.35;;;27.30;99.90;;;;;;2585212;54;20806;31
2022/07/04 06:17:18;;;;;;;3.67;2.70;;;27.40;99.90;;;;;;2603451;46;20797;31
2022/07/04 06:19:59;;;;;;;5.22;2.60;;;27.50;99.90;;;;;;2585156;54;20852;31
2022/07/04 06:22:42;;;;;;;3.80;2.38;;;27.70;99.90;;;;;;2584972;54;20031;31
2022/07/04 06:25:18;;;;;;;3.33;2.75;;;27.80;99.90;;;;;;2585038;54;20938;31
2022/07/04 06:27:54;;;;;;;4.55;2.20;;;27.70;99.90;;;;;;2585076;54;20860;31
2022/07/04 06:30:27;;;;;;;4.55;2.65;;;27.90;99.90;;;;;;2590561;46;20033;31
2022/07/04 06:33:01;;;;;;;4.10;2.50;;;28.10;99.90;;;;;;2584201;54;20148;31
2022/07/04 06:35:45;;;;;;;3.80;2.30;;;28.10;99.90;;;;;;2584431;54;20329;31
2022/07/04 06:38:21;;;;;;;3.70;2.00;;;28.10;99.90;;;;;;2585309;54;21251;31
2022/07/04 06:40:54;;;;;;;;;;;28.10;99.90;;;;;;2603579;46;20824;31
2022/07/04 06:43:28;;;;;;;5.47;1.70;;;28.10;99.90;;;;;;2584753;54;20644;31
2022/07/04 06:46:04;;;;;;;2.75;1.90;;;28.10;99.90;;;;;;2585013;54;20666;31
2022/07/04 06:48:45;;;;;;;4.05;2.13;;;28.10;99.90;;;;;;2585213;54;20034;31
2022/07/04 06:51:27;;;;;;;4.25;2.00;;;28.00;99.90;;;;;;2603716;46;20643;31
2022/07/04 06:54:04;;;;;;;5.67;1.90;;;27.90;99.90;;;;;;2585198;54;20053;31
2022/07/04 06:56:43;;;;;;;6.85;2.50;;;27.70;99.90;;;;;;2584258;54;20924;31
2022/07/04 06:59:20;;;;;;;4.32;2.30;;;27.70;99.90;;;;;;2585081;54;20129;31
2022/07/04 07:01:58;;;;;;;3.07;2.20;;;27.70;99.90;;;;;;2584877;54;20116;31
2022/07/04 07:04:37;;;;;;;5.30;2.20;;;27.80;99.90;;;;;;2584974;54;20027;31
2022/07/04 07:07:15;;;;;;;4.90;2.13;;;27.90;99.90;;;;;;2584828;54;20075;31
2022/07/04 07:09:53;;;;;;;5.05;1.95;;;28.00;99.90;;;;;;2682915;39;21514;31
2022/07/04 07:12:28;;;;;;;3.65;2.10;;;28.20;99.90;;;;;;2603520;46;20154;31
2022/07/04 07:15:04;;;;;;;4.35;3.05;;;28.20;99.90;;;;;;2585050;54;21229;31
2022/07/04 07:17:40;;;;;;;5.13;2.40;;;28.30;99.90;;;;;;2585093;54;20247;31
2022/07/04 07:20:17;;;;;;;2.55;1.92;;;28.40;99.90;;;;;;2682773;39;20494;31
2022/07/04 07:22:55;;;;;;;5.85;3.10;;;28.60;99.90;;;;;;2584955;54;20997;31
2022/07/04 07:25:31;;;;;;;7.90;2.45;;;28.60;99.90;;;;;;2584730;54;20856;31
2022/07/04 07:28:07;;;;;;;3.13;2.07;;;28.80;99.90;;;;;;2603512;47;21213;31
2022/07/04 07:30:42;;;;;;;15.07;3.10;;;29.10;99.90;;;;;;2585025;54;20054;31
2022/07/04 07:33:18;;;;;;;7.05;3.00;;;29.30;99.90;;;;;;2585284;54;20247;31
2022/07/04 07:35:53;;;;;;;5.27;2.50;;;29.40;99.90;;;;;;2585022;54;20030;31
2022/07/04 07:38:31;;;;;;;10.20;3.13;;;29.60;99.90;;;;;;2584898;54;20096;31
2022/07/04 07:41:06;;;;;;;6.15;2.65;;;29.60;99.90;;;;;;2590985;47;21004;31
2022/07/04 07:43:42;;;;;;;;;;;29.70;99.90;;;;;;2584252;54;20509;31
2022/07/04 07:46:16;;;;;;;4.07;2.40;;;29.90;99.90;;;;;;2602709;47;20741;31
2022/07/04 07:48:51;;;;;;;7.70;3.13;;;29.90;99.90;;;;;;2584144;54;20043;31
2022/07/04 07:51:27;;;;;;;3.95;2.30;;;30.00;99.90;;;;;;2602587;47;20968;31
2022/07/04 07:54:06;;;;;;;2.37;1.90;;;29.90;99.90;;;;;;2584946;54;20080;31
2022/07/04 07:56:53;;;;;;;5.95;2.85;;;29.90;99.90;;;;;;2603086;47;20343;31
2022/07/04 07:59:32;;;;;;;2.60;2.25;;;30.00;99.90;;;;;;2585566;54;20026;31
2022/07/04 08:02:07;;;;;;;4.50;2.30;;;30.00;99.90;;;;;;2585856;54;20923;31
2022/07/04 08:04:40;;;;;;;5.70;2.30;;;30.00;99.90;;;;;;2585077;54;20917;31
2022/07/04 08:07:18;;;;;;;4.37;2.20;;;30.00;99.90;;;;;;2584613;54;20105;31
2022/07/04 08:10:04;;;;;;;11.68;2.42;;;30.00;99.90;;;;;;2585024;54;21173;31
2022/07/04 08:12:41;;;;;;;8.15;2.28;;;30.00;99.90;;;;;;2584860;46;20906;31
2022/07/04 08:15:19;;;;;;;4.95;2.20;;;30.10;99.90;;;;;;2604139;46;20030;31
2022/07/04 08:17:56;;;;;;;8.67;2.10;;;30.10;99.90;;;;;;2683433;39;20432;31
2022/07/04 08:20:33;;;;;;;5.82;2.65;;;29.90;99.90;;;;;;2604034;46;20243;31
2022/07/04 08:23:29;;;;;;;3.55;2.60;;;29.80;99.90;;;;;;2603976;46;20037;31
2022/07/04 08:26:09;;;;;;;4.00;2.20;;;29.70;99.90;;;;;;2585428;54;20033;31
2022/07/04 08:28:47;;;;;;;3.63;2.38;;;29.80;99.90;;;;;;2585278;54;20607;31
2022/07/04 08:31:25;;;;;;;5.40;2.47;;;29.80;99.90;;;;;;2585411;54;20033;31
2022/07/04 08:34:19;;;;;;;;;;;29.80;99.90;;;;;;2585535;54;20089;31
2022/07/04 08:36:57;;;;;;;3.63;1.95;;;29.80;99.90;;;;;;2584686;54;20883;31
2022/07/04 08:39:32;;;;;;;3.53;2.17;;;29.80;99.90;;;;;;2584378;54;20977;31
2022/07/04 08:42:09;;;;;;;4.10;2.30;;;29.90;99.90;;;;;;2584518;54;20038;31
2022/07/04 08:44:43;;;;;;;2.90;2.15;;;29.90;99.90;;;;;;2595304;46;21137;31
2022/07/04 08:47:20;;;;;;;7.73;1.97;;;29.90;99.90;;;;;;2585462;54;20991;31
2022/07/04 08:49:57;;;;;;;7.25;2.50;;;29.90;99.90;;;;;;2603743;46;22239;31
2022/07/04 08:52:39;;;;;;;4.22;2.08;;;29.90;99.90;;;;;;2603896;46;20796;31
2022/07/04 09:00:53;;;;;;;4.60;2.33;;;29.70;99.90;;;;;;2584946;54;20063;31
2022/07/04 09:03:29;;;;;;;4.30;2.60;;;29.80;99.90;;;;;;2585076;54;21497;31
2022/07/04 09:06:05;;;;;;;5.20;2.40;;;29.90;99.90;;;;;;2585167;54;20057;31
2022/07/04 09:08:40;;;;;;;6.60;2.50;;;29.90;99.90;;;;;;2585196;54;20902;31
2022/07/04 09:11:14;;;;;;;3.15;2.40;;;29.90;99.90;;;;;;2603785;46;20030;31
2022/07/04 09:13:53;;;;;;;3.15;2.50;;;29.90;99.90;;;;;;2603781;46;20848;31
2022/07/04 09:16:30;;;;;;;9.57;2.95;;;29.80;99.90;;;;;;2603958;46;20026;31
2022/07/04 09:19:06;;;;;;;3.53;2.85;;;29.80;99.90;;;;;;2603769;46;20915;31
2022/07/04 09:21:48;;;;;;;10.32;2.58;;;29.80;99.90;;;;;;2585683;54;22460;31
2022/07/04 09:24:48;;;;;;;4.13;3.20;;;29.70;99.90;;;;;;2585154;54;20857;31
2022/07/04 09:27:34;;;;;;;3.05;2.75;;;29.50;99.90;;;;;;2585311;54;20493;31
2022/07/04 09:30:17;;;;;;;3.88;2.78;;;29.30;99.90;;;;;;2585190;54;20087;31
2022/07/04 09:33:05;;;;;;;12.52;4.15;;;29.20;99.90;;;;;;2585297;54;20107;31
2022/07/04 09:35:43;;;;;;;6.50;3.25;;;29.10;99.90;;;;;;2585111;54;20049;31
2022/07/04 09:38:27;;;;;;;5.70;2.80;;;29.00;99.90;;;;;;2585069;54;20811;31
2022/07/04 09:44:02;;;;;;;4.47;3.40;;;29.00;99.90;;;;;;2585381;54;20054;31
2022/07/04 09:46:41;;;;;;;4.35;3.00;;;28.90;99.90;;;;;;2585315;54;20030;31
2022/07/04 09:49:16;;;;;;;11.90;3.57;;;28.80;99.90;;;;;;2584515;54;20124;31
2022/07/04 09:55:02;;;;;;;3.50;3.20;;;28.70;99.90;;;;;;2584388;54;20786;31
2022/07/04 09:57:40;;;;;;;5.75;3.45;;;28.50;99.90;;;;;;2602484;46;20037;31
2022/07/04 10:00:26;;;;;;;4.60;3.55;;;28.40;99.90;;;;;;2701260;39;21420;31
2022/07/04 10:03:22;;;;;;;3.40;3.10;;;28.30;99.90;;;;;;2603453;46;20034;31
2022/07/04 10:06:06;;;;;;;3.50;3.20;;;28.30;99.90;;;;;;2603224;46;20057;31
2022/07/04 10:08:42;;;;;;;5.85;3.13;;;28.30;99.90;;;;;;2603494;46;20247;31
2022/07/04 10:11:19;;;;;;;4.35;3.28;;;28.20;99.90;;;;;;2584372;54;20818;31
2022/07/04 10:13:55;;;;;;;6.57;3.67;;;28.30;99.90;;;;;;2585153;54;20979;31
2022/07/04 10:16:33;;;;;;;7.37;3.17;;;28.40;99.90;;;;;;2584283;54;20874;31
2022/07/04 10:19:12;;;;;;;6.60;3.50;;;28.60;99.90;;;;;;2584266;54;20080;31
2022/07/04 10:21:49;;;;;;;5.57;3.75;;;28.70;99.90;;;;;;2603575;46;20745;31
2022/07/04 10:24:25;;;;;;;7.35;3.30;;;28.80;99.90;;;;;;2585245;54;20934;31
2022/07/04 10:27:04;;;;;;;8.68;3.72;;;28.90;99.90;;;;;;2603405;46;20859;31
2022/07/04 10:29:37;;;;;;;7.80;3.55;;;29.00;99.90;;;;;;2585000;54;20512;31
2022/07/04 10:32:14;;;;;;;2.87;2.57;;;29.10;99.90;;;;;;2585204;54;20032;31
2022/07/04 10:34:53;;;;;;;5.05;3.90;;;29.20;99.90;;;;;;2585347;54;21347;31
2022/07/04 10:37:33;;;;;;;5.97;3.33;;;29.50;99.90;;;;;;2584753;54;20945;31
2022/07/04 10:40:13;;;;;;;6.25;3.40;;;29.80;99.90;;;;;;2584878;54;20932;31
2022/07/04 10:42:50;;;;;;;8.82;3.50;;;29.90;99.90;;;;;;2585091;54;20895;31
2022/07/04 10:45:38;;;;;;;8.65;3.60;;;30.10;99.90;;;;;;2682616;39;20563;31
2022/07/04 10:48:13;;;;;;;5.00;3.60;;;30.30;99.90;;;;;;2584990;54;20982;31
2022/07/04 10:51:04;;;;;;;7.30;3.30;;;30.30;99.90;;;;;;2600668;46;20397;31
2022/07/04 10:54:01;;;;;;;4.63;3.13;;;30.40;99.90;;;;;;2585006;54;20043;31
2022/07/04 10:56:42;;;;;;;5.63;3.00;;;30.50;99.90;;;;;;2584652;54;21396;31
2022/07/04 10:59:19;;;;;;;5.82;3.33;;;30.70;99.90;;;;;;2682730;39;20496;31
2022/07/04 11:02:19;;;;;;;5.03;3.25;;;30.80;99.90;;;;;;2700898;39;20429;31
2022/07/04 11:05:02;;;;;;;4.15;3.00;;;30.90;99.90;;;;;;2602795;46;20045;31
2022/07/04 11:08:05;;;;;;;6.85;3.30;;;31.10;99.90;;;;;;2585749;47;20187;31
2022/07/04 11:10:42;;;;;;;3.70;3.15;;;31.30;99.90;;;;;;2585145;54;21809;31
2022/07/04 11:13:20;;;;;;;3.45;3.15;;;31.40;99.90;;;;;;2584322;54;20056;31
2022/07/04 11:16:09;;;;;;;4.25;3.35;;;31.50;99.50;;;;;;2701920;39;22411;31
2022/07/04 11:19:06;;;;;;;4.00;2.85;;;31.50;99.40;;;;;;2683307;39;20392;31
2022/07/04 11:21:40;;;;;;;3.95;2.90;;;31.70;98.70;;;;;;2593923;46;20097;31
2022/07/04 11:24:18;;;;;;;4.70;3.20;;;31.70;98.60;;;;;;2591382;47;20033;31
2022/07/04 11:26:57;;;;;;;3.78;3.08;;;31.80;98.20;;;;;;2594185;47;20776;31
2022/07/04 11:29:35;;;;;;;3.20;2.95;;;31.90;98.80;;;;;;2603913;47;20080;31
2022/07/04 11:32:12;;;;;;;5.00;2.95;;;31.90;96.80;;;;;;2586069;54;20022;31
2022/07/04 11:34:55;;;;;;;4.38;3.03;;;32.00;97.70;;;;;;2684080;39;22331;31
2022/07/04 11:37:27;;;;;;;5.70;3.20;;;32.10;96.60;;;;;;2586226;54;20485;31
2022/07/04 11:45:44;;;;;;;2.93;2.63;;;32.10;96.30;;;;;;2586216;54;21269;31
2022/07/04 11:50:53;;;;;;;2.72;2.53;;;32.30;95.10;;;;;;2585957;54;21013;31
2022/07/04 11:53:29;;;;;;;3.35;2.40;;;32.30;94.90;;;;;;2586167;54;20708;31
2022/07/04 11:56:09;;;;;;;5.03;2.97;;;32.50;94.00;;;;;;2585437;54;20999;31
2022/07/04 11:58:43;;;;;;;3.00;2.50;;;32.60;94.20;;;;;;2586195;54;20026;31
2022/07/04 12:01:21;;;;;;;3.30;2.70;;;32.60;94.10;;;;;;2604656;46;20101;31
2022/07/04 12:03:58;;;;;;;4.10;2.70;;;32.60;94.30;;;;;;2585831;54;20026;31
2022/07/04 12:06:32;;;;;;;2.37;2.17;;;32.70;95.20;;;;;;2755046;31;22438;31
2022/07/04 12:09:08;;;;;;;2.50;2.30;;;32.60;93.80;;;;;;2585193;54;20897;31
2022/07/04 12:11:58;;;;;;;4.45;2.60;;;32.50;93.80;;;;;;2586136;54;20805;31
2022/07/04 12:14:32;;;;;;;2.90;2.00;;;32.40;93.80;;;;;;2586110;54;20764;31
2022/07/04 12:17:19;;;;;;;1.88;1.60;;;32.20;91.90;;;;;;2604531;46;20875;31
2022/07/04 12:19:58;;;;;;;6.82;0.95;;;32.10;91.70;;;;;;2586122;54;20026;31
2022/07/04 12:22:36;;;;;;;3.78;1.30;;;32.20;90.20;;;;;;2591916;46;20027;31
2022/07/04 12:25:11;;;;;;;10.23;2.08;;;32.10;89.50;;;;;;2604139;46;20031;31
2022/07/04 12:27:55;;;;;;;1.70;1.08;;;32.10;89.90;;;;;;2585947;54;20908;31
2022/07/04 12:30:36;;;;;;;2.85;1.60;;;32.10;88.00;;;;;;2604689;46;20034;31
2022/07/04 12:33:10;;;;;;;2.50;1.50;;;32.00;89.00;;;;;;2584936;54;20787;31
2022/07/04 12:35:47;;;;;;;1.90;1.70;;;32.00;89.70;;;;;;2585669;54;20031;31
2022/07/04 12:38:32;;;;;;;3.15;1.73;;;32.00;89.60;;;;;;2586163;54;20053;31
2022/07/04 12:41:11;;;;;;;3.35;1.60;;;32.00;90.30;;;;;;2586030;54;21147;31
2022/07/04 12:43:54;;;;;;;1.83;1.70;;;32.20;90.90;;;;;;2586547;46;20681;31
2022/07/04 12:46:32;;;;;;;2.20;1.88;;;32.20;90.50;;;;;;2586043;54;20972;31
2022/07/04 12:49:20;;;;;;;2.30;2.10;;;32.20;90.90;;;;;;2603918;46;20936;31
2022/07/04 12:51:54;;;;;;;8.60;2.33;;;32.30;90.60;;;;;;2585840;54;20065;31
2022/07/04 12:54:33;;;;;;;3.15;2.30;;;32.20;90.50;;;;;;2586151;54;20047;31
2022/07/04 12:57:11;;;;;;;4.47;2.10;;;32.10;89.20;;;;;;2702327;39;22316;31
2022/07/04 12:59:53;;;;;;;9.40;2.65;;;32.00;90.30;;;;;;2584840;54;20053;31
2022/07/04 13:02:48;;;;;;;2.47;1.80;;;31.80;90.60;;;;;;2585829;54;20168;31
2022/07/04 13:05:24;;;;;;;2.13;1.93;;;31.70;90.10;;;;;;2585706;54;20056;31
2022/07/04 13:08:02;;;;;;;2.78;1.80;;;31.60;90.40;;;;;;2585033;54;20085;31
2022/07/04 13:10:39;;;;;;;3.85;2.00;;;31.60;90.60;;;;;;2584455;54;20805;31
2022/07/04 13:13:14;;;;;;;4.40;1.73;;;31.60;91.60;;;;;;2585801;54;20034;31
2022/07/04 13:15:52;;;;;;;4.70;2.00;;;31.60;90.80;;;;;;2682895;39;21140;31
2022/07/04 13:18:27;;;;;;;4.50;1.90;;;31.60;91.50;;;;;;2585611;54;20102;31
2022/07/04 13:21:00;;;;;;;;;;;31.50;91.30;;;;;;2586140;54;21312;31
2022/07/04 13:23:34;;;;;;;3.67;1.80;;;31.50;92.00;;;;;;2584902;54;20794;31
2022/07/04 13:26:10;;;;;;;3.95;2.28;;;31.50;91.30;;;;;;2585627;54;20238;31
2022/07/04 13:28:49;;;;;;;1.95;1.60;;;31.60;91.00;;;;;;2585719;54;20084;31
2022/07/04 13:31:25;;;;;;;3.80;2.20;;;31.80;89.70;;;;;;2683449;39;21473;31
2022/07/04 13:34:01;;;;;;;2.03;1.90;;;31.80;88.10;;;;;;2585631;54;20911;31
2022/07/04 13:36:35;;;;;;;4.40;2.00;;;31.80;90.20;;;;;;2585930;54;20030;31
2022/07/04 13:39:12;;;;;;;2.42;1.70;;;31.80;90.80;;;;;;2585758;54;25121;31
2022/07/04 13:42:04;;;;;;;1.87;1.70;;;31.90;90.10;;;;;;2585773;54;20148;31
2022/07/04 13:44:38;;;;;;;1.65;1.50;;;31.90;89.70;;;;;;2585350;54;20037;31
2022/07/04 13:47:14;;;;;;;2.20;1.80;;;31.80;89.40;;;;;;2603961;46;20030;31
2022/07/04 13:49:47;;;;;;;17.35;3.35;;;31.70;89.10;;;;;;2754913;31;22728;31
2022/07/04 13:52:20;;;;;;;7.30;1.70;;;31.50;89.30;;;;;;2585823;54;20029;31
2022/07/04 13:54:54;;;;;;;7.20;1.90;;;31.50;88.00;;;;;;2602784;46;20804;31
2022/07/04 13:57:28;;;;;;;3.05;1.30;;;31.40;88.90;;;;;;2585976;54;20858;31
2022/07/04 14:00:01;;;;;;;30.17;4.13;;;31.20;89.00;;;;;;2585721;54;20093;31
2022/07/04 14:02:43;;;;;;;3.45;1.60;;;31.10;90.10;;;;;;2584734;54;20919;31
2022/07/04 14:05:18;;;;;;;9.68;2.65;;;31.10;89.50;;;;;;2585526;54;21064;31
2022/07/04 14:07:51;;;;;;;5.25;1.90;;;31.20;90.00;;;;;;2585053;54;20770;31
2022/07/04 14:10:25;;;;;;;13.23;2.70;;;31.20;90.00;;;;;;2585706;54;20917;31
2022/07/04 14:13:02;;;;;;;4.13;1.70;;;31.20;90.40;;;;;;2585287;54;20826;31
2022/07/04 14:15:36;;;;;;;16.55;3.60;;;31.20;90.20;;;;;;2585074;54;20954;31
2022/07/04 14:18:13;;;;;;;3.85;2.30;;;31.10;90.00;;;;;;2683590;39;22418;31
2022/07/04 14:20:49;;;;;;;5.30;2.30;;;31.10;89.50;;;;;;2585516;54;20993;31